sensor_id;sensor_type;location;lat;lon;timestamp;P1;durP1;ratioP1;P2;durP2;ratioP2
73693;SDS011;61997;53.974;11.670;2023-02-01T00:02:04;31.95;;;17.02;;
73693;SDS011;61997;53.974;11.670;2023-02-01T00:04:29;31.05;;;17.50;;
73693;SDS011;61997;53.974;11.670;2023-02-01T00:06:55;29.75;;;15.95;;
73693;SDS011;61997;53.974;11.670;2023-02-01T00:09:20;25.60;;;15.07;;
73693;SDS011;61997;53.974;11.670;2023-02-01T00:11:46;31.05;;;15.68;;
73693;SDS011;61997;53.974;11.670;2023-02-01T00:14:11;30.48;;;15.70;;
73693;SDS011;61997;53.974;11.670;2023-02-01T00:16:37;27.55;;;15.55;;
73693;SDS011;61997;53.974;11.670;2023-02-01T00:19:06;27.35;;;15.75;;
73693;SDS011;61997;53.974;11.670;2023-02-01T00:21:35;25.92;;;15.52;;
73693;SDS011;61997;53.974;11.670;2023-02-01T00:24:01;24.90;;;14.55;;
73693;SDS011;61997;53.974;11.670;2023-02-01T00:29:19;26.77;;;14.07;;
73693;SDS011;61997;53.974;11.670;2023-02-01T00:31:45;31.33;;;13.95;;
73693;SDS011;61997;53.974;11.670;2023-02-01T00:34:13;22.40;;;12.80;;
73693;SDS011;61997;53.974;11.670;2023-02-01T00:36:41;21.08;;;12.75;;
73693;SDS011;61997;53.974;11.670;2023-02-01T00:39:07;23.02;;;12.18;;
73693;SDS011;61997;53.974;11.670;2023-02-01T00:41:33;20.77;;;11.80;;
73693;SDS011;61997;53.974;11.670;2023-02-01T00:43:58;22.23;;;12.02;;
73693;SDS011;61997;53.974;11.670;2023-02-01T00:46:24;19.27;;;11.65;;
73693;SDS011;61997;53.974;11.670;2023-02-01T00:48:50;21.20;;;10.63;;
73693;SDS011;61997;53.974;11.670;2023-02-01T00:51:17;18.02;;;9.95;;
73693;SDS011;61997;53.974;11.670;2023-02-01T00:53:44;20.20;;;11.02;;
73693;SDS011;61997;53.974;11.670;2023-02-01T00:56:11;20.17;;;10.00;;
73693;SDS011;61997;53.974;11.670;2023-02-01T00:58:37;17.10;;;9.85;;
73693;SDS011;61997;53.974;11.670;2023-02-01T01:01:04;17.10;;;9.93;;
73693;SDS011;61997;53.974;11.670;2023-02-01T01:03:37;20.98;;;10.38;;
73693;SDS011;61997;53.974;11.670;2023-02-01T01:06:05;21.67;;;9.57;;
73693;SDS011;61997;53.974;11.670;2023-02-01T01:08:39;17.58;;;9.43;;
73693;SDS011;61997;53.974;11.670;2023-02-01T01:11:06;17.42;;;8.93;;
73693;SDS011;61997;53.974;11.670;2023-02-01T01:13:35;17.88;;;8.90;;
73693;SDS011;61997;53.974;11.670;2023-02-01T01:16:01;17.05;;;8.05;;
73693;SDS011;61997;53.974;11.670;2023-02-01T01:18:28;14.55;;;8.35;;
73693;SDS011;61997;53.974;11.670;2023-02-01T01:20:55;12.85;;;7.72;;
73693;SDS011;61997;53.974;11.670;2023-02-01T01:23:20;14.45;;;7.50;;
73693;SDS011;61997;53.974;11.670;2023-02-01T01:25:46;14.13;;;6.97;;
73693;SDS011;61997;53.974;11.670;2023-02-01T01:28:11;13.32;;;7.55;;
73693;SDS011;61997;53.974;11.670;2023-02-01T01:30:39;12.65;;;6.93;;
73693;SDS011;61997;53.974;11.670;2023-02-01T01:33:04;14.20;;;7.20;;
73693;SDS011;61997;53.974;11.670;2023-02-01T01:35:30;15.30;;;7.40;;
73693;SDS011;61997;53.974;11.670;2023-02-01T01:37:56;14.02;;;6.22;;
73693;SDS011;61997;53.974;11.670;2023-02-01T01:40:23;16.90;;;6.70;;
73693;SDS011;61997;53.974;11.670;2023-02-01T01:42:48;12.70;;;6.22;;
73693;SDS011;61997;53.974;11.670;2023-02-01T01:45:28;10.68;;;5.28;;
73693;SDS011;61997;53.974;11.670;2023-02-01T01:47:57;15.75;;;6.68;;
73693;SDS011;61997;53.974;11.670;2023-02-01T01:53:36;12.00;;;5.30;;
73693;SDS011;61997;53.974;11.670;2023-02-01T01:56:05;12.45;;;5.53;;
73693;SDS011;61997;53.974;11.670;2023-02-01T01:58:31;9.88;;;5.18;;
73693;SDS011;61997;53.974;11.670;2023-02-01T02:00:57;10.93;;;5.95;;
73693;SDS011;61997;53.974;11.670;2023-02-01T02:03:33;10.68;;;5.30;;
73693;SDS011;61997;53.974;11.670;2023-02-01T02:06:00;10.65;;;4.63;;
73693;SDS011;61997;53.974;11.670;2023-02-01T02:08:28;10.15;;;4.50;;
73693;SDS011;61997;53.974;11.670;2023-02-01T02:10:53;10.90;;;5.03;;
73693;SDS011;61997;53.974;11.670;2023-02-01T02:13:26;8.57;;;4.10;;
73693;SDS011;61997;53.974;11.670;2023-02-01T02:24:10;7.07;;;3.53;;
73693;SDS011;61997;53.974;11.670;2023-02-01T02:30:16;8.23;;;4.32;;
73693;SDS011;61997;53.974;11.670;2023-02-01T02:32:59;9.32;;;3.72;;
73693;SDS011;61997;53.974;11.670;2023-02-01T02:35:51;10.95;;;4.35;;
73693;SDS011;61997;53.974;11.670;2023-02-01T02:43:43;8.77;;;3.47;;
73693;SDS011;61997;53.974;11.670;2023-02-01T02:46:38;9.57;;;4.00;;
73693;SDS011;61997;53.974;11.670;2023-02-01T02:49:27;8.07;;;3.67;;
73693;SDS011;61997;53.974;11.670;2023-02-01T02:52:13;6.53;;;3.22;;
73693;SDS011;61997;53.974;11.670;2023-02-01T02:55:00;7.65;;;3.42;;
73693;SDS011;61997;53.974;11.670;2023-02-01T02:57:28;6.75;;;3.30;;
73693;SDS011;61997;53.974;11.670;2023-02-01T03:00:16;6.03;;;3.85;;
73693;SDS011;61997;53.974;11.670;2023-02-01T03:05:47;6.78;;;3.00;;
73693;SDS011;61997;53.974;11.670;2023-02-01T03:08:36;5.57;;;3.15;;
73693;SDS011;61997;53.974;11.670;2023-02-01T03:11:10;7.72;;;2.90;;
73693;SDS011;61997;53.974;11.670;2023-02-01T03:16:19;8.57;;;3.40;;
73693;SDS011;61997;53.974;11.670;2023-02-01T03:21:24;8.50;;;2.92;;
73693;SDS011;61997;53.974;11.670;2023-02-01T03:23:52;6.50;;;3.28;;
73693;SDS011;61997;53.974;11.670;2023-02-01T03:26:18;5.55;;;3.08;;
73693;SDS011;61997;53.974;11.670;2023-02-01T03:28:51;5.60;;;2.70;;
73693;SDS011;61997;53.974;11.670;2023-02-01T03:31:23;8.85;;;2.95;;
73693;SDS011;61997;53.974;11.670;2023-02-01T03:33:48;4.78;;;2.65;;
73693;SDS011;61997;53.974;11.670;2023-02-01T03:41:40;8.27;;;2.70;;
73693;SDS011;61997;53.974;11.670;2023-02-01T03:46:41;4.93;;;2.60;;
73693;SDS011;61997;53.974;11.670;2023-02-01T03:49:11;6.78;;;2.42;;
73693;SDS011;61997;53.974;11.670;2023-02-01T03:51:41;7.47;;;2.75;;
73693;SDS011;61997;53.974;11.670;2023-02-01T03:54:06;6.97;;;2.60;;
73693;SDS011;61997;53.974;11.670;2023-02-01T03:56:36;7.10;;;2.58;;
73693;SDS011;61997;53.974;11.670;2023-02-01T03:59:03;5.65;;;3.15;;
73693;SDS011;61997;53.974;11.670;2023-02-01T04:01:29;4.55;;;2.00;;
73693;SDS011;61997;53.974;11.670;2023-02-01T04:03:55;5.00;;;2.08;;
73693;SDS011;61997;53.974;11.670;2023-02-01T04:06:22;7.53;;;2.88;;
73693;SDS011;61997;53.974;11.670;2023-02-01T04:08:48;6.05;;;2.70;;
73693;SDS011;61997;53.974;11.670;2023-02-01T04:11:13;8.93;;;2.67;;
73693;SDS011;61997;53.974;11.670;2023-02-01T04:13:38;8.32;;;2.33;;
73693;SDS011;61997;53.974;11.670;2023-02-01T04:16:04;7.40;;;2.83;;
73693;SDS011;61997;53.974;11.670;2023-02-01T04:18:30;5.18;;;1.98;;
73693;SDS011;61997;53.974;11.670;2023-02-01T04:20:55;5.95;;;2.42;;
73693;SDS011;61997;53.974;11.670;2023-02-01T04:23:20;4.68;;;2.25;;
73693;SDS011;61997;53.974;11.670;2023-02-01T04:25:46;7.45;;;3.05;;
73693;SDS011;61997;53.974;11.670;2023-02-01T04:28:11;5.93;;;2.15;;
73693;SDS011;61997;53.974;11.670;2023-02-01T04:30:37;5.10;;;2.33;;
73693;SDS011;61997;53.974;11.670;2023-02-01T04:33:02;3.88;;;2.03;;
73693;SDS011;61997;53.974;11.670;2023-02-01T04:35:30;4.15;;;1.60;;
73693;SDS011;61997;53.974;11.670;2023-02-01T04:37:55;5.80;;;2.00;;
73693;SDS011;61997;53.974;11.670;2023-02-01T04:40:21;4.95;;;2.00;;
73693;SDS011;61997;53.974;11.670;2023-02-01T04:42:46;5.28;;;2.03;;
73693;SDS011;61997;53.974;11.670;2023-02-01T04:45:12;6.03;;;1.90;;
73693;SDS011;61997;53.974;11.670;2023-02-01T04:47:39;4.28;;;1.80;;
73693;SDS011;61997;53.974;11.670;2023-02-01T04:50:04;3.97;;;2.03;;
73693;SDS011;61997;53.974;11.670;2023-02-01T04:52:31;5.85;;;2.17;;
73693;SDS011;61997;53.974;11.670;2023-02-01T04:54:56;4.43;;;1.70;;
73693;SDS011;61997;53.974;11.670;2023-02-01T04:57:24;5.05;;;1.73;;
73693;SDS011;61997;53.974;11.670;2023-02-01T04:59:50;5.90;;;2.35;;
73693;SDS011;61997;53.974;11.670;2023-02-01T05:02:15;8.02;;;1.90;;
73693;SDS011;61997;53.974;11.670;2023-02-01T05:04:41;5.05;;;2.00;;
73693;SDS011;61997;53.974;11.670;2023-02-01T05:07:06;5.00;;;1.50;;
73693;SDS011;61997;53.974;11.670;2023-02-01T05:09:31;4.60;;;1.60;;
73693;SDS011;61997;53.974;11.670;2023-02-01T05:11:57;3.53;;;1.50;;
73693;SDS011;61997;53.974;11.670;2023-02-01T05:14:41;6.07;;;1.98;;
73693;SDS011;61997;53.974;11.670;2023-02-01T05:17:06;4.85;;;1.98;;
73693;SDS011;61997;53.974;11.670;2023-02-01T05:19:31;4.65;;;1.70;;
73693;SDS011;61997;53.974;11.670;2023-02-01T05:21:57;5.25;;;1.75;;
73693;SDS011;61997;53.974;11.670;2023-02-01T05:24:22;3.88;;;1.90;;
73693;SDS011;61997;53.974;11.670;2023-02-01T05:26:53;5.60;;;2.05;;
73693;SDS011;61997;53.974;11.670;2023-02-01T05:29:19;5.53;;;1.50;;
73693;SDS011;61997;53.974;11.670;2023-02-01T05:31:45;5.60;;;1.80;;
73693;SDS011;61997;53.974;11.670;2023-02-01T05:34:11;3.95;;;1.63;;
73693;SDS011;61997;53.974;11.670;2023-02-01T05:36:37;4.53;;;1.98;;
73693;SDS011;61997;53.974;11.670;2023-02-01T05:39:02;9.50;;;2.15;;
73693;SDS011;61997;53.974;11.670;2023-02-01T05:41:28;3.92;;;1.50;;
73693;SDS011;61997;53.974;11.670;2023-02-01T05:43:53;4.13;;;1.63;;
73693;SDS011;61997;53.974;11.670;2023-02-01T05:46:19;5.55;;;1.63;;
73693;SDS011;61997;53.974;11.670;2023-02-01T05:48:44;2.95;;;1.55;;
73693;SDS011;61997;53.974;11.670;2023-02-01T05:51:10;6.05;;;1.60;;
73693;SDS011;61997;53.974;11.670;2023-02-01T05:53:36;4.88;;;1.75;;
73693;SDS011;61997;53.974;11.670;2023-02-01T05:56:01;4.78;;;1.77;;
73693;SDS011;61997;53.974;11.670;2023-02-01T05:58:27;5.57;;;1.33;;
73693;SDS011;61997;53.974;11.670;2023-02-01T06:00:52;4.55;;;1.80;;
73693;SDS011;61997;53.974;11.670;2023-02-01T06:03:18;3.72;;;1.35;;
73693;SDS011;61997;53.974;11.670;2023-02-01T06:05:44;3.42;;;1.10;;
73693;SDS011;61997;53.974;11.670;2023-02-01T06:08:10;5.00;;;1.42;;
73693;SDS011;61997;53.974;11.670;2023-02-01T06:10:35;6.50;;;1.63;;
73693;SDS011;61997;53.974;11.670;2023-02-01T06:13:00;3.85;;;1.58;;
73693;SDS011;61997;53.974;11.670;2023-02-01T06:15:30;3.55;;;1.83;;
73693;SDS011;61997;53.974;11.670;2023-02-01T06:17:57;4.47;;;1.45;;
73693;SDS011;61997;53.974;11.670;2023-02-01T06:20:25;7.15;;;2.08;;
73693;SDS011;61997;53.974;11.670;2023-02-01T06:22:54;3.22;;;1.50;;
73693;SDS011;61997;53.974;11.670;2023-02-01T06:25:22;2.63;;;1.00;;
73693;SDS011;61997;53.974;11.670;2023-02-01T06:30:15;6.57;;;1.53;;
73693;SDS011;61997;53.974;11.670;2023-02-01T06:32:41;4.43;;;1.42;;
73693;SDS011;61997;53.974;11.670;2023-02-01T06:35:07;4.90;;;1.52;;
73693;SDS011;61997;53.974;11.670;2023-02-01T06:37:36;3.58;;;1.20;;
73693;SDS011;61997;53.974;11.670;2023-02-01T06:40:02;4.80;;;1.27;;
73693;SDS011;61997;53.974;11.670;2023-02-01T06:42:28;4.55;;;1.15;;
73693;SDS011;61997;53.974;11.670;2023-02-01T06:44:53;4.78;;;1.10;;
73693;SDS011;61997;53.974;11.670;2023-02-01T06:47:19;5.03;;;1.48;;
73693;SDS011;61997;53.974;11.670;2023-02-01T06:49:44;2.38;;;1.00;;
73693;SDS011;61997;53.974;11.670;2023-02-01T06:52:10;3.95;;;1.33;;
73693;SDS011;61997;53.974;11.670;2023-02-01T06:54:35;6.18;;;1.38;;
73693;SDS011;61997;53.974;11.670;2023-02-01T06:57:02;5.53;;;1.27;;
73693;SDS011;61997;53.974;11.670;2023-02-01T06:59:28;5.03;;;1.27;;
73693;SDS011;61997;53.974;11.670;2023-02-01T07:01:53;3.85;;;1.10;;
73693;SDS011;61997;53.974;11.670;2023-02-01T07:04:18;5.57;;;1.73;;
73693;SDS011;61997;53.974;11.670;2023-02-01T07:06:44;3.50;;;1.33;;
73693;SDS011;61997;53.974;11.670;2023-02-01T07:09:09;3.00;;;1.20;;
73693;SDS011;61997;53.974;11.670;2023-02-01T07:11:37;4.32;;;1.13;;
73693;SDS011;61997;53.974;11.670;2023-02-01T07:14:05;4.80;;;1.10;;
73693;SDS011;61997;53.974;11.670;2023-02-01T07:16:31;3.08;;;0.95;;
73693;SDS011;61997;53.974;11.670;2023-02-01T07:18:57;6.00;;;1.38;;
73693;SDS011;61997;53.974;11.670;2023-02-01T07:21:23;2.70;;;0.80;;
73693;SDS011;61997;53.974;11.670;2023-02-01T07:23:49;3.67;;;0.88;;
73693;SDS011;61997;53.974;11.670;2023-02-01T07:26:14;4.80;;;0.93;;
73693;SDS011;61997;53.974;11.670;2023-02-01T07:28:41;2.90;;;1.23;;
73693;SDS011;61997;53.974;11.670;2023-02-01T07:31:08;4.32;;;1.05;;
73693;SDS011;61997;53.974;11.670;2023-02-01T07:33:35;3.58;;;1.00;;
73693;SDS011;61997;53.974;11.670;2023-02-01T07:36:04;4.25;;;1.20;;
73693;SDS011;61997;53.974;11.670;2023-02-01T07:38:31;2.22;;;0.93;;
73693;SDS011;61997;53.974;11.670;2023-02-01T07:41:05;2.50;;;0.77;;
73693;SDS011;61997;53.974;11.670;2023-02-01T07:43:31;4.47;;;0.95;;
73693;SDS011;61997;53.974;11.670;2023-02-01T07:48:26;1.77;;;0.82;;
73693;SDS011;61997;53.974;11.670;2023-02-01T07:53:23;2.88;;;1.10;;
73693;SDS011;61997;53.974;11.670;2023-02-01T07:55:49;3.33;;;1.05;;
73693;SDS011;61997;53.974;11.670;2023-02-01T07:58:14;3.97;;;0.82;;
73693;SDS011;61997;53.974;11.670;2023-02-01T08:00:39;3.28;;;0.90;;
73693;SDS011;61997;53.974;11.670;2023-02-01T08:03:23;3.50;;;0.88;;
73693;SDS011;61997;53.974;11.670;2023-02-01T08:05:53;4.07;;;0.90;;
73693;SDS011;61997;53.974;11.670;2023-02-01T08:08:19;3.13;;;1.17;;
73693;SDS011;61997;53.974;11.670;2023-02-01T08:10:45;2.33;;;0.93;;
73693;SDS011;61997;53.974;11.670;2023-02-01T08:13:10;3.72;;;0.60;;
73693;SDS011;61997;53.974;11.670;2023-02-01T08:15:35;2.00;;;0.80;;
73693;SDS011;61997;53.974;11.670;2023-02-01T08:18:01;2.92;;;0.80;;
73693;SDS011;61997;53.974;11.670;2023-02-01T08:20:27;1.92;;;0.85;;
73693;SDS011;61997;53.974;11.670;2023-02-01T08:22:53;3.53;;;0.70;;
73693;SDS011;61997;53.974;11.670;2023-02-01T08:25:19;4.32;;;1.10;;
73693;SDS011;61997;53.974;11.670;2023-02-01T08:27:45;3.00;;;1.00;;
73693;SDS011;61997;53.974;11.670;2023-02-01T08:30:11;1.77;;;0.77;;
73693;SDS011;61997;53.974;11.670;2023-02-01T08:32:37;2.50;;;0.70;;
73693;SDS011;61997;53.974;11.670;2023-02-01T08:35:05;1.60;;;0.70;;
73693;SDS011;61997;53.974;11.670;2023-02-01T08:37:31;2.97;;;0.85;;
73693;SDS011;61997;53.974;11.670;2023-02-01T08:39:57;1.70;;;0.68;;
73693;SDS011;61997;53.974;11.670;2023-02-01T08:42:22;0.95;;;0.50;;
73693;SDS011;61997;53.974;11.670;2023-02-01T08:45:06;2.67;;;0.70;;
73693;SDS011;61997;53.974;11.670;2023-02-01T08:47:33;1.75;;;0.70;;
73693;SDS011;61997;53.974;11.670;2023-02-01T08:49:58;2.65;;;0.77;;
73693;SDS011;61997;53.974;11.670;2023-02-01T08:52:24;1.83;;;0.75;;
73693;SDS011;61997;53.974;11.670;2023-02-01T08:54:50;2.45;;;0.80;;
73693;SDS011;61997;53.974;11.670;2023-02-01T08:57:15;3.53;;;0.85;;
73693;SDS011;61997;53.974;11.670;2023-02-01T08:59:41;2.22;;;0.65;;
73693;SDS011;61997;53.974;11.670;2023-02-01T09:02:11;1.33;;;0.52;;
73693;SDS011;61997;53.974;11.670;2023-02-01T09:04:37;4.68;;;0.90;;
73693;SDS011;61997;53.974;11.670;2023-02-01T09:07:03;2.85;;;0.90;;
73693;SDS011;61997;53.974;11.670;2023-02-01T09:09:28;1.60;;;0.73;;
73693;SDS011;61997;53.974;11.670;2023-02-01T09:11:54;1.77;;;0.63;;
73693;SDS011;61997;53.974;11.670;2023-02-01T09:14:19;1.20;;;0.63;;
73693;SDS011;61997;53.974;11.670;2023-02-01T09:16:45;2.22;;;0.80;;
73693;SDS011;61997;53.974;11.670;2023-02-01T09:19:10;2.17;;;0.70;;
73693;SDS011;61997;53.974;11.670;2023-02-01T09:21:36;1.52;;;0.55;;
73693;SDS011;61997;53.974;11.670;2023-02-01T09:24:01;2.10;;;0.90;;
73693;SDS011;61997;53.974;11.670;2023-02-01T09:26:27;4.88;;;1.02;;
73693;SDS011;61997;53.974;11.670;2023-02-01T09:28:52;1.55;;;0.50;;
73693;SDS011;61997;53.974;11.670;2023-02-01T09:31:18;1.00;;;0.30;;
73693;SDS011;61997;53.974;11.670;2023-02-01T09:33:43;2.55;;;0.80;;
73693;SDS011;61997;53.974;11.670;2023-02-01T09:36:09;1.58;;;0.45;;
73693;SDS011;61997;53.974;11.670;2023-02-01T09:38:34;2.70;;;0.80;;
73693;SDS011;61997;53.974;11.670;2023-02-01T09:41:00;3.67;;;0.80;;
73693;SDS011;61997;53.974;11.670;2023-02-01T09:46:19;1.52;;;0.70;;
73693;SDS011;61997;53.974;11.670;2023-02-01T09:48:47;2.15;;;0.65;;
73693;SDS011;61997;53.974;11.670;2023-02-01T09:51:16;3.00;;;0.90;;
73693;SDS011;61997;53.974;11.670;2023-02-01T09:53:44;1.48;;;0.60;;
73693;SDS011;61997;53.974;11.670;2023-02-01T09:56:23;1.60;;;0.68;;
73693;SDS011;61997;53.974;11.670;2023-02-01T09:58:54;1.70;;;0.70;;
73693;SDS011;61997;53.974;11.670;2023-02-01T10:01:25;1.70;;;0.75;;
73693;SDS011;61997;53.974;11.670;2023-02-01T10:03:52;2.17;;;0.55;;
73693;SDS011;61997;53.974;11.670;2023-02-01T10:22:59;5.05;;;0.88;;
73693;SDS011;61997;53.974;11.670;2023-02-01T10:25:55;1.90;;;0.57;;
73693;SDS011;61997;53.974;11.670;2023-02-01T10:28:24;3.15;;;1.00;;
73693;SDS011;61997;53.974;11.670;2023-02-01T10:30:51;3.47;;;0.52;;
73693;SDS011;61997;53.974;11.670;2023-02-01T10:35:58;4.60;;;0.93;;
73693;SDS011;61997;53.974;11.670;2023-02-01T10:38:29;2.03;;;0.68;;
73693;SDS011;61997;53.974;11.670;2023-02-01T10:40:57;2.53;;;1.15;;
73693;SDS011;61997;53.974;11.670;2023-02-01T10:43:38;3.22;;;0.70;;
73693;SDS011;61997;53.974;11.670;2023-02-01T10:46:05;3.40;;;0.82;;
73693;SDS011;61997;53.974;11.670;2023-02-01T10:48:31;2.25;;;0.80;;
73693;SDS011;61997;53.974;11.670;2023-02-01T10:51:03;3.88;;;0.82;;
73693;SDS011;61997;53.974;11.670;2023-02-01T10:56:11;2.83;;;0.85;;
73693;SDS011;61997;53.974;11.670;2023-02-01T10:58:45;2.55;;;1.00;;
73693;SDS011;61997;53.974;11.670;2023-02-01T11:01:21;3.35;;;0.98;;
73693;SDS011;61997;53.974;11.670;2023-02-01T11:04:01;3.45;;;1.02;;
73693;SDS011;61997;53.974;11.670;2023-02-01T11:06:28;3.95;;;1.00;;
73693;SDS011;61997;53.974;11.670;2023-02-01T11:11:51;2.65;;;1.10;;
73693;SDS011;61997;53.974;11.670;2023-02-01T11:16:52;4.43;;;0.90;;
73693;SDS011;61997;53.974;11.670;2023-02-01T11:19:19;3.22;;;1.00;;
73693;SDS011;61997;53.974;11.670;2023-02-01T11:21:45;2.50;;;1.17;;
73693;SDS011;61997;53.974;11.670;2023-02-01T11:26:49;4.30;;;1.17;;
73693;SDS011;61997;53.974;11.670;2023-02-01T11:29:16;2.38;;;0.90;;
73693;SDS011;61997;53.974;11.670;2023-02-01T11:31:44;4.20;;;1.10;;
73693;SDS011;61997;53.974;11.670;2023-02-01T11:34:17;3.45;;;1.02;;
73693;SDS011;61997;53.974;11.670;2023-02-01T11:36:45;3.70;;;1.05;;
73693;SDS011;61997;53.974;11.670;2023-02-01T11:41:41;3.10;;;1.40;;
73693;SDS011;61997;53.974;11.670;2023-02-01T11:44:22;4.55;;;1.02;;
73693;SDS011;61997;53.974;11.670;2023-02-01T11:46:56;3.83;;;1.00;;
73693;SDS011;61997;53.974;11.670;2023-02-01T11:49:54;4.05;;;1.08;;
73693;SDS011;61997;53.974;11.670;2023-02-01T11:52:26;5.75;;;1.20;;
73693;SDS011;61997;53.974;11.670;2023-02-01T11:57:57;3.92;;;1.20;;
73693;SDS011;61997;53.974;11.670;2023-02-01T12:06:08;3.75;;;1.17;;
73693;SDS011;61997;53.974;11.670;2023-02-01T12:08:50;2.90;;;1.15;;
73693;SDS011;61997;53.974;11.670;2023-02-01T12:11:43;3.45;;;1.00;;
73693;SDS011;61997;53.974;11.670;2023-02-01T12:17:26;2.97;;;1.60;;
73693;SDS011;61997;53.974;11.670;2023-02-01T12:31:59;4.03;;;1.23;;
73693;SDS011;61997;53.974;11.670;2023-02-01T12:39:37;4.93;;;1.20;;
73693;SDS011;61997;53.974;11.670;2023-02-01T12:42:25;2.33;;;0.90;;
73693;SDS011;61997;53.974;11.670;2023-02-01T12:49:54;2.17;;;1.13;;
73693;SDS011;61997;53.974;11.670;2023-02-01T12:52:23;3.00;;;0.80;;
73693;SDS011;61997;53.974;11.670;2023-02-01T12:57:33;4.72;;;1.35;;
73693;SDS011;61997;53.974;11.670;2023-02-01T13:08:43;2.60;;;1.35;;
73693;SDS011;61997;53.974;11.670;2023-02-01T13:11:13;4.93;;;1.17;;
73693;SDS011;61997;53.974;11.670;2023-02-01T13:16:28;2.60;;;1.00;;
73693;SDS011;61997;53.974;11.670;2023-02-01T13:19:10;4.00;;;1.10;;
73693;SDS011;61997;53.974;11.670;2023-02-01T13:22:04;2.92;;;1.38;;
73693;SDS011;61997;53.974;11.670;2023-02-01T13:27:05;2.95;;;1.30;;
73693;SDS011;61997;53.974;11.670;2023-02-01T13:29:33;4.22;;;1.52;;
73693;SDS011;61997;53.974;11.670;2023-02-01T13:43:14;3.63;;;1.10;;
73693;SDS011;61997;53.974;11.670;2023-02-01T13:45:44;4.30;;;0.90;;
73693;SDS011;61997;53.974;11.670;2023-02-01T13:48:20;4.68;;;1.30;;
73693;SDS011;61997;53.974;11.670;2023-02-01T13:50:53;2.92;;;1.30;;
73693;SDS011;61997;53.974;11.670;2023-02-01T13:53:29;7.47;;;2.17;;
73693;SDS011;61997;53.974;11.670;2023-02-01T13:55:58;6.32;;;2.65;;
73693;SDS011;61997;53.974;11.670;2023-02-01T13:58:36;5.03;;;2.47;;
73693;SDS011;61997;53.974;11.670;2023-02-01T14:19:28;9.27;;;5.18;;
73693;SDS011;61997;53.974;11.670;2023-02-01T14:21:58;11.55;;;4.97;;
73693;SDS011;61997;53.974;11.670;2023-02-01T14:24:35;9.35;;;5.55;;
73693;SDS011;61997;53.974;11.670;2023-02-01T14:27:02;12.35;;;5.90;;
73693;SDS011;61997;53.974;11.670;2023-02-01T14:29:45;14.95;;;6.00;;
73693;SDS011;61997;53.974;11.670;2023-02-01T14:32:21;13.85;;;6.88;;
73693;SDS011;61997;53.974;11.670;2023-02-01T15:00:52;18.88;;;8.27;;
73693;SDS011;61997;53.974;11.670;2023-02-01T15:05:56;14.23;;;7.43;;
73693;SDS011;61997;53.974;11.670;2023-02-01T15:08:25;16.15;;;8.35;;
73693;SDS011;61997;53.974;11.670;2023-02-01T15:10:53;17.25;;;8.85;;
73693;SDS011;61997;53.974;11.670;2023-02-01T15:13:23;15.20;;;8.63;;
73693;SDS011;61997;53.974;11.670;2023-02-01T15:16:09;18.85;;;9.68;;
73693;SDS011;61997;53.974;11.670;2023-02-01T15:18:36;19.90;;;10.60;;
73693;SDS011;61997;53.974;11.670;2023-02-01T15:21:02;17.90;;;10.05;;
73693;SDS011;61997;53.974;11.670;2023-02-01T15:23:28;16.90;;;9.40;;
73693;SDS011;61997;53.974;11.670;2023-02-01T15:25:54;19.05;;;10.52;;
73693;SDS011;61997;53.974;11.670;2023-02-01T15:28:20;23.42;;;10.25;;
73693;SDS011;61997;53.974;11.670;2023-02-01T15:31:00;20.25;;;10.27;;
73693;SDS011;61997;53.974;11.670;2023-02-01T15:33:29;18.25;;;10.25;;
73693;SDS011;61997;53.974;11.670;2023-02-01T15:36:07;21.85;;;10.98;;
73693;SDS011;61997;53.974;11.670;2023-02-01T15:38:41;22.27;;;11.27;;
73693;SDS011;61997;53.974;11.670;2023-02-01T15:43:49;17.20;;;10.57;;
73693;SDS011;61997;53.974;11.670;2023-02-01T15:46:40;19.48;;;10.00;;
73693;SDS011;61997;53.974;11.670;2023-02-01T15:49:19;22.17;;;10.48;;
73693;SDS011;61997;53.974;11.670;2023-02-01T15:51:50;21.45;;;11.57;;
73693;SDS011;61997;53.974;11.670;2023-02-01T15:54:20;19.58;;;9.45;;
73693;SDS011;61997;53.974;11.670;2023-02-01T15:56:50;21.08;;;9.65;;
73693;SDS011;61997;53.974;11.670;2023-02-01T15:59:21;18.92;;;9.27;;
73693;SDS011;61997;53.974;11.670;2023-02-01T16:01:48;19.13;;;9.15;;
73693;SDS011;61997;53.974;11.670;2023-02-01T16:04:19;18.95;;;9.32;;
73693;SDS011;61997;53.974;11.670;2023-02-01T16:06:51;14.35;;;8.85;;
73693;SDS011;61997;53.974;11.670;2023-02-01T16:09:19;18.27;;;9.20;;
73693;SDS011;61997;53.974;11.670;2023-02-01T16:11:47;18.52;;;9.52;;
73693;SDS011;61997;53.974;11.670;2023-02-01T16:14:24;15.85;;;9.20;;
73693;SDS011;61997;53.974;11.670;2023-02-01T16:16:51;16.35;;;8.80;;
73693;SDS011;61997;53.974;11.670;2023-02-01T16:19:17;13.43;;;8.38;;
73693;SDS011;61997;53.974;11.670;2023-02-01T16:21:44;14.43;;;8.27;;
73693;SDS011;61997;53.974;11.670;2023-02-01T16:24:10;14.40;;;7.82;;
73693;SDS011;61997;53.974;11.670;2023-02-01T16:26:36;15.43;;;7.97;;
73693;SDS011;61997;53.974;11.670;2023-02-01T16:29:03;15.32;;;7.82;;
73693;SDS011;61997;53.974;11.670;2023-02-01T16:31:33;14.48;;;7.53;;
73693;SDS011;61997;53.974;11.670;2023-02-01T16:34:00;13.95;;;7.35;;
73693;SDS011;61997;53.974;11.670;2023-02-01T16:36:26;13.10;;;6.70;;
73693;SDS011;61997;53.974;11.670;2023-02-01T16:38:53;14.90;;;7.40;;
73693;SDS011;61997;53.974;11.670;2023-02-01T16:41:20;13.45;;;6.00;;
73693;SDS011;61997;53.974;11.670;2023-02-01T16:43:50;13.00;;;6.82;;
73693;SDS011;61997;53.974;11.670;2023-02-01T16:46:18;12.02;;;7.40;;
73693;SDS011;61997;53.974;11.670;2023-02-01T16:48:56;10.68;;;6.13;;
73693;SDS011;61997;53.974;11.670;2023-02-01T16:51:23;14.65;;;6.85;;
73693;SDS011;61997;53.974;11.670;2023-02-01T16:53:50;11.90;;;5.80;;
73693;SDS011;61997;53.974;11.670;2023-02-01T16:56:17;11.07;;;6.13;;
73693;SDS011;61997;53.974;11.670;2023-02-01T16:58:44;11.05;;;5.72;;
73693;SDS011;61997;53.974;11.670;2023-02-01T17:01:10;11.85;;;6.07;;
73693;SDS011;61997;53.974;11.670;2023-02-01T17:03:36;10.45;;;5.70;;
73693;SDS011;61997;53.974;11.670;2023-02-01T17:06:02;9.98;;;5.70;;
73693;SDS011;61997;53.974;11.670;2023-02-01T17:08:29;12.90;;;5.47;;
73693;SDS011;61997;53.974;11.670;2023-02-01T17:10:56;11.40;;;5.60;;
73693;SDS011;61997;53.974;11.670;2023-02-01T17:13:22;13.38;;;6.47;;
73693;SDS011;61997;53.974;11.670;2023-02-01T17:15:49;11.10;;;5.80;;
73693;SDS011;61997;53.974;11.670;2023-02-01T17:18:17;13.68;;;6.80;;
73693;SDS011;61997;53.974;11.670;2023-02-01T17:20:43;13.32;;;6.97;;
73693;SDS011;61997;53.974;11.670;2023-02-01T17:23:09;14.10;;;7.03;;
73693;SDS011;61997;53.974;11.670;2023-02-01T17:25:34;13.10;;;7.10;;
73693;SDS011;61997;53.974;11.670;2023-02-01T17:28:00;17.00;;;8.48;;
73693;SDS011;61997;53.974;11.670;2023-02-01T17:30:25;18.65;;;8.68;;
73693;SDS011;61997;53.974;11.670;2023-02-01T17:32:50;17.35;;;8.35;;
73693;SDS011;61997;53.974;11.670;2023-02-01T17:35:20;18.20;;;8.07;;
73693;SDS011;61997;53.974;11.670;2023-02-01T17:37:47;17.58;;;8.82;;
73693;SDS011;61997;53.974;11.670;2023-02-01T17:40:13;19.05;;;9.77;;
73693;SDS011;61997;53.974;11.670;2023-02-01T17:42:39;17.75;;;9.10;;
73693;SDS011;61997;53.974;11.670;2023-02-01T17:45:26;19.35;;;9.77;;
73693;SDS011;61997;53.974;11.670;2023-02-01T17:48:04;20.55;;;10.13;;
73693;SDS011;61997;53.974;11.670;2023-02-01T17:50:31;20.60;;;10.27;;
73693;SDS011;61997;53.974;11.670;2023-02-01T17:52:57;19.98;;;10.73;;